Time;durP1;ratioP1;P1;durP2;ratioP2;P2;SDS_P1;SDS_P2;PMS_P1;PMS_P2;Temp;Humidity;BMP_temperature;BMP_pressure;BME280_temperature;BME280_humidity;BME280_pressure;Samples;Min_cycle;Max_cycle;Signal;HPM_P1;HPM_P2
2023/07/01 00:00:30;;;;;;;3.75;2.00;;;20.00;81.70;;;;;;2075326;28;20029;-70
2023/07/01 00:01:30;;;;;;;2.42;1.70;;;20.00;81.70;;;;;;2075066;28;20026;-70
2023/07/01 00:02:31;;;;;;;4.32;1.92;;;20.00;81.60;;;;;;2075908;28;20022;-70
2023/07/01 00:03:31;;;;;;;2.47;1.73;;;20.00;81.90;;;;;;2074902;28;20533;-70
2023/07/01 00:04:32;;;;;;;3.78;1.83;;;20.00;81.80;;;;;;2073882;28;20022;-70
2023/07/01 00:05:33;;;;;;;6.05;2.33;;;20.00;82.10;;;;;;2074864;28;20021;-70
2023/07/01 00:06:33;;;;;;;2.13;1.50;;;20.00;81.70;;;;;;2075284;28;20634;-70
2023/07/01 00:07:34;;;;;;;6.57;2.17;;;20.00;82.20;;;;;;2073781;28;20103;-70
2023/07/01 00:08:35;;;;;;;4.57;1.90;;;20.00;82.60;;;;;;2076350;28;20029;-70
2023/07/01 00:09:35;;;;;;;5.50;2.42;;;20.00;82.60;;;;;;2076372;28;20040;-70
2023/07/01 00:10:36;;;;;;;3.25;1.88;;;20.00;82.20;;;;;;2075109;28;20108;-70
2023/07/01 00:11:37;;;;;;;4.68;2.22;;;20.00;81.90;;;;;;2077586;28;20105;-70
2023/07/01 00:12:38;;;;;;;4.30;2.00;;;20.00;81.90;;;;;;2075572;28;20017;-70
2023/07/01 00:13:38;;;;;;;3.47;2.10;;;20.00;82.00;;;;;;2076196;28;20030;-70
2023/07/01 00:14:39;;;;;;;3.15;2.38;;;20.00;81.90;;;;;;2076296;28;20033;-70
2023/07/01 00:15:39;;;;;;;4.18;1.95;;;20.00;82.10;;;;;;2077102;28;20105;-70
2023/07/01 00:16:40;;;;;;;3.40;2.00;;;20.00;82.30;;;;;;2075080;28;20088;-70
2023/07/01 00:17:41;;;;;;;3.90;1.95;;;20.10;82.40;;;;;;2074883;28;20109;-70
2023/07/01 00:18:43;;;;;;;4.10;2.00;;;20.10;82.40;;;;;;2075607;28;20029;-70
2023/07/01 00:19:44;;;;;;;4.93;2.03;;;20.10;82.40;;;;;;2076497;28;20018;-70
2023/07/01 00:20:44;;;;;;;3.35;1.80;;;20.10;82.20;;;;;;2075069;28;20064;-70
2023/07/01 00:21:45;;;;;;;2.53;1.50;;;20.10;81.80;;;;;;2074771;28;20501;-70
2023/07/01 00:22:45;;;;;;;2.42;1.95;;;20.10;82.00;;;;;;2076177;28;20069;-70
2023/07/01 00:23:46;;;;;;;4.78;2.25;;;20.10;82.10;;;;;;2072722;28;20034;-70
2023/07/01 00:24:46;;;;;;;3.42;1.95;;;20.10;82.20;;;;;;2074961;28;20119;-70
2023/07/01 00:25:47;;;;;;;4.10;2.03;;;20.20;81.90;;;;;;2076892;28;20025;-70
2023/07/01 00:26:47;;;;;;;2.40;2.00;;;20.20;82.00;;;;;;2075788;28;20033;-70
2023/07/01 00:27:48;;;;;;;2.05;1.80;;;20.10;81.70;;;;;;2075875;28;20021;-70
2023/07/01 00:28:48;;;;;;;3.25;1.75;;;20.10;81.80;;;;;;2076432;28;20111;-70
2023/07/01 00:29:49;;;;;;;1.92;1.73;;;20.10;81.70;;;;;;2075854;28;20056;-70
2023/07/01 00:30:50;;;;;;;4.55;2.17;;;20.10;82.20;;;;;;2075762;28;20022;-70
2023/07/01 00:31:50;;;;;;;2.60;1.67;;;20.10;81.80;;;;;;2075719;28;20061;-70
2023/07/01 00:32:51;;;;;;;3.50;2.10;;;20.10;81.80;;;;;;2075747;28;20081;-70
2023/07/01 00:33:51;;;;;;;2.97;2.10;;;20.10;81.90;;;;;;2076271;28;20036;-70
2023/07/01 00:34:52;;;;;;;2.53;1.77;;;20.10;82.00;;;;;;2076605;28;20056;-70
2023/07/01 00:35:52;;;;;;;2.83;1.95;;;20.10;81.90;;;;;;2078220;28;20040;-70
2023/07/01 00:36:53;;;;;;;2.20;1.63;;;20.10;81.90;;;;;;2075007;28;20025;-70
2023/07/01 00:37:53;;;;;;;2.65;2.15;;;20.10;82.00;;;;;;2075028;28;20091;-70
2023/07/01 00:38:54;;;;;;;4.18;1.33;;;20.10;81.60;;;;;;2075894;28;20026;-70
2023/07/01 00:39:54;;;;;;;3.60;1.90;;;20.10;81.70;;;;;;2076211;28;20061;-70
2023/07/01 00:40:55;;;;;;;3.10;1.90;;;20.20;81.70;;;;;;2074982;28;20030;-70
2023/07/01 00:41:56;;;;;;;2.70;1.60;;;20.10;81.30;;;;;;2074886;28;20036;-70
2023/07/01 00:42:56;;;;;;;3.97;1.98;;;20.10;80.80;;;;;;2076638;28;20026;-70
2023/07/01 00:43:57;;;;;;;4.07;1.63;;;20.10;81.30;;;;;;2076615;28;20096;-70
2023/07/01 00:44:57;;;;;;;11.65;2.58;;;20.10;81.40;;;;;;2077621;28;20075;-70
2023/07/01 00:45:58;;;;;;;3.53;1.70;;;20.10;80.90;;;;;;2074752;28;20584;-70
2023/07/01 00:46:59;;;;;;;4.55;1.65;;;20.10;81.30;;;;;;2076287;28;20428;-70
2023/07/01 00:48:00;;;;;;;3.80;1.83;;;20.10;81.40;;;;;;2074739;28;20030;-70
2023/07/01 00:49:01;;;;;;;3.70;1.95;;;20.10;81.60;;;;;;2076253;28;20027;-70
2023/07/01 00:50:02;;;;;;;3.75;2.22;;;20.10;81.70;;;;;;2069565;28;20669;-70
2023/07/01 00:51:03;;;;;;;2.50;2.00;;;20.10;81.60;;;;;;2071386;28;20076;-70
2023/07/01 00:52:05;;;;;;;3.83;2.05;;;20.10;81.70;;;;;;2075386;28;20069;-70
2023/07/01 00:53:07;;;;;;;3.33;1.73;;;20.10;81.70;;;;;;2069576;28;20485;-70
2023/07/01 00:54:07;;;;;;;1.95;1.50;;;20.10;81.50;;;;;;2070230;28;20133;-70
2023/07/01 00:55:09;;;;;;;2.28;1.80;;;20.10;81.40;;;;;;2075846;28;20033;-70
2023/07/01 00:56:10;;;;;;;1.92;1.65;;;20.10;81.70;;;;;;2074997;28;20029;-70
2023/07/01 00:57:10;;;;;;;2.85;2.03;;;20.10;81.70;;;;;;2075442;28;20109;-70
2023/07/01 00:58:11;;;;;;;3.50;1.90;;;20.10;81.80;;;;;;2075493;28;20021;-70
2023/07/01 00:59:12;;;;;;;4.35;1.77;;;20.10;81.70;;;;;;2077055;28;20021;-70
2023/07/01 01:00:16;;;;;;;1.92;1.60;;;20.20;81.70;;;;;;2074714;28;20374;-70
2023/07/01 01:01:21;;;;;;;3.58;1.77;;;20.20;81.50;;;;;;2073909;28;20402;-70
2023/07/01 01:02:28;;;;;;;2.85;1.80;;;20.20;81.50;;;;;;2077797;28;20025;-70
2023/07/01 01:03:40;;;;;;;2.30;1.70;;;20.20;81.60;;;;;;2077024;28;20025;-70
2023/07/01 01:05:10;;;;;;;1.90;1.67;;;20.20;81.40;;;;;;2078647;28;20598;-70
2023/07/01 01:06:33;;;;;;;3.83;2.00;;;20.20;81.40;;;;;;2077375;28;20028;-70
2023/07/01 01:07:50;;;;;;;2.88;1.83;;;20.10;81.00;;;;;;2075852;28;20045;-70
2023/07/01 01:09:02;;;;;;;4.60;1.73;;;20.10;81.70;;;;;;2074705;28;20421;-70
2023/07/01 01:10:14;;;;;;;3.83;2.35;;;20.10;81.20;;;;;;2077690;28;20018;-70
2023/07/01 01:11:15;;;;;;;4.45;1.80;;;20.20;81.70;;;;;;2075745;28;20034;-70
2023/07/01 01:12:19;;;;;;;3.22;1.95;;;20.20;81.60;;;;;;2074885;28;20057;-70
2023/07/01 01:13:24;;;;;;;3.53;1.83;;;20.10;81.30;;;;;;2076224;28;20037;-70
2023/07/01 01:14:27;;;;;;;3.22;1.80;;;20.20;81.80;;;;;;2074094;28;20018;-70
2023/07/01 01:15:27;;;;;;;3.92;1.70;;;20.20;81.70;;;;;;2075355;28;20022;-70
2023/07/01 01:16:28;;;;;;;3.90;2.00;;;20.20;80.90;;;;;;2076584;28;20021;-70
2023/07/01 01:17:33;;;;;;;2.30;1.60;;;20.20;81.20;;;;;;2074949;28;20014;-70
2023/07/01 01:18:34;;;;;;;2.08;1.60;;;20.20;81.10;;;;;;2074807;28;20022;-70
2023/07/01 01:19:57;;;;;;;2.55;1.58;;;20.20;81.40;;;;;;2076314;28;20140;-70
2023/07/01 01:20:59;;;;;;;2.75;2.00;;;20.20;81.60;;;;;;2075923;28;20030;-70
2023/07/01 01:22:17;;;;;;;3.90;1.90;;;20.20;81.20;;;;;;2072856;28;20556;-70
2023/07/01 01:23:24;;;;;;;2.55;1.60;;;20.20;81.50;;;;;;2075453;28;20049;-70
2023/07/01 01:24:28;;;;;;;2.88;1.90;;;20.20;81.80;;;;;;2076649;28;20478;-70
2023/07/01 01:25:43;;;;;;;3.08;1.80;;;20.20;81.70;;;;;;2076285;28;20037;-70
2023/07/01 01:26:47;;;;;;;2.85;1.73;;;20.20;82.00;;;;;;2075493;28;20022;-70
2023/07/01 01:27:48;;;;;;;3.20;1.70;;;20.20;82.00;;;;;;2077380;28;20040;-70
2023/07/01 01:28:49;;;;;;;2.60;1.70;;;20.10;81.80;;;;;;2076881;28;20044;-70
2023/07/01 01:29:50;;;;;;;3.78;1.98;;;20.10;81.30;;;;;;2075521;28;20082;-70
2023/07/01 01:30:51;;;;;;;6.50;1.85;;;20.10;81.40;;;;;;2076253;28;20017;-70
2023/07/01 01:31:51;;;;;;;3.42;1.90;;;20.20;81.80;;;;;;2075649;28;20716;-70
2023/07/01 01:32:52;;;;;;;3.80;1.83;;;20.10;81.50;;;;;;2073921;28;20382;-70
2023/07/01 01:33:52;;;;;;;3.15;1.50;;;20.10;81.50;;;;;;2075547;28;20049;-70
2023/07/01 01:34:53;;;;;;;4.60;1.98;;;20.10;81.80;;;;;;2073956;28;20045;-70
2023/07/01 01:36:04;;;;;;;2.45;1.70;;;20.10;81.90;;;;;;2074983;28;20026;-70
2023/07/01 01:37:11;;;;;;;3.35;1.50;;;20.10;82.30;;;;;;2074549;28;20465;-70
2023/07/01 01:38:21;;;;;;;6.68;2.13;;;20.10;82.40;;;;;;2074831;28;20057;-70
2023/07/01 01:39:26;;;;;;;4.63;1.80;;;20.10;82.50;;;;;;2076780;28;20044;-70
2023/07/01 01:40:36;;;;;;;4.13;1.77;;;20.10;82.80;;;;;;2076144;28;20018;-70
2023/07/01 01:41:52;;;;;;;3.63;1.70;;;20.10;83.00;;;;;;2074927;28;20378;-70
2023/07/01 01:43:00;;;;;;;2.75;1.70;;;20.10;83.00;;;;;;2073986;28;20033;-70
2023/07/01 01:44:10;;;;;;;4.05;1.80;;;20.10;83.00;;;;;;2075497;28;20112;-70
2023/07/01 01:45:15;;;;;;;4.93;2.05;;;20.10;83.40;;;;;;2076375;28;20036;-70
2023/07/01 01:46:17;;;;;;;3.10;1.75;;;20.10;83.40;;;;;;2077710;28;20546;-70
2023/07/01 01:47:29;;;;;;;3.05;1.85;;;20.10;83.70;;;;;;2074109;28;20022;-70
2023/07/01 01:48:29;;;;;;;5.18;1.88;;;20.20;83.50;;;;;;2076405;28;20053;-70
2023/07/01 01:49:32;;;;;;;4.90;2.33;;;20.10;83.40;;;;;;2076045;28;20017;-70
2023/07/01 01:50:35;;;;;;;3.65;1.80;;;20.20;83.50;;;;;;2073734;28;20021;-70
2023/07/01 01:51:39;;;;;;;3.88;1.67;;;20.10;83.70;;;;;;2071212;28;20022;-70
2023/07/01 01:52:41;;;;;;;4.10;1.65;;;20.20;84.00;;;;;;2079165;28;20033;-70
2023/07/01 01:53:42;;;;;;;2.88;1.83;;;20.20;84.00;;;;;;2075641;28;20025;-70
2023/07/01 01:54:45;;;;;;;3.13;1.98;;;20.20;84.30;;;;;;2077140;28;20025;-70
2023/07/01 01:55:46;;;;;;;3.40;1.80;;;20.20;84.50;;;;;;2074953;28;20084;-70
2023/07/01 01:56:47;;;;;;;2.33;1.70;;;20.20;84.40;;;;;;2074512;28;20030;-70
2023/07/01 01:57:49;;;;;;;2.53;1.70;;;20.20;84.40;;;;;;2076637;28;20021;-70
2023/07/01 01:58:49;;;;;;;8.55;2.00;;;20.20;84.40;;;;;;2078923;28;20032;-70
2023/07/01 01:59:50;;;;;;;2.22;1.70;;;20.20;84.40;;;;;;2075172;28;20036;-70
2023/07/01 02:00:51;;;;;;;5.70;1.67;;;20.20;84.40;;;;;;2074976;28;20026;-70
2023/07/01 02:01:54;;;;;;;3.08;2.00;;;20.20;84.20;;;;;;2076263;28;20025;-70
2023/07/01 02:02:55;;;;;;;3.92;1.90;;;20.20;84.50;;;;;;2074642;28;20061;-70
2023/07/01 02:03:56;;;;;;;2.50;1.95;;;20.20;84.40;;;;;;2075376;28;20494;-70
2023/07/01 02:04:58;;;;;;;3.35;2.00;;;20.20;84.50;;;;;;2075474;28;20025;-70
2023/07/01 02:05:58;;;;;;;3.17;1.83;;;20.20;84.40;;;;;;2078111;28;20022;-70
2023/07/01 02:06:59;;;;;;;3.58;1.95;;;20.20;84.60;;;;;;2078479;28;20064;-70
2023/07/01 02:08:02;;;;;;;2.15;1.90;;;20.20;84.60;;;;;;2075753;28;20481;-70
2023/07/01 02:09:04;;;;;;;3.88;2.15;;;20.20;84.60;;;;;;2075674;28;20029;-70
2023/07/01 02:10:05;;;;;;;3.72;1.85;;;20.20;85.10;;;;;;2076333;28;20096;-70
2023/07/01 02:11:05;;;;;;;3.88;1.88;;;20.20;85.10;;;;;;2074620;28;20386;-70
2023/07/01 02:12:06;;;;;;;2.95;1.67;;;20.20;85.30;;;;;;2072875;28;20056;-70
2023/07/01 02:13:07;;;;;;;3.60;2.10;;;20.20;85.30;;;;;;2074258;28;20022;-70
2023/07/01 02:14:07;;;;;;;3.70;1.92;;;20.20;85.40;;;;;;2074784;28;20052;-70
2023/07/01 02:15:08;;;;;;;4.20;2.03;;;20.20;85.50;;;;;;2074559;28;20128;-70
2023/07/01 02:16:08;;;;;;;3.50;1.85;;;20.20;85.60;;;;;;2076862;28;20022;-70
2023/07/01 02:17:09;;;;;;;4.20;2.40;;;20.20;85.40;;;;;;2076757;28;20029;-70
2023/07/01 02:18:10;;;;;;;3.15;1.90;;;20.30;85.90;;;;;;2074776;28;20022;-70
2023/07/01 02:19:10;;;;;;;2.17;1.85;;;20.30;86.00;;;;;;2074052;28;20064;-70
2023/07/01 02:20:11;;;;;;;3.00;1.83;;;20.20;86.00;;;;;;2073642;28;20508;-70
2023/07/01 02:21:12;;;;;;;2.40;1.90;;;20.20;86.00;;;;;;2076529;28;20056;-70
2023/07/01 02:22:12;;;;;;;5.70;2.10;;;20.30;86.30;;;;;;2075091;28;20030;-70
2023/07/01 02:23:13;;;;;;;2.35;1.85;;;20.20;86.10;;;;;;2075661;28;20022;-70
2023/07/01 02:24:14;;;;;;;4.70;2.17;;;20.30;86.40;;;;;;2075624;28;20018;-70
2023/07/01 02:25:15;;;;;;;3.70;2.22;;;20.20;86.50;;;;;;2077153;28;20022;-70
2023/07/01 02:26:15;;;;;;;2.70;1.73;;;20.30;86.50;;;;;;2078705;28;20024;-70
2023/07/01 02:27:16;;;;;;;3.15;1.45;;;20.20;86.50;;;;;;2078127;28;20025;-70
2023/07/01 02:28:19;;;;;;;9.30;2.55;;;20.20;86.50;;;;;;2076526;28;20699;-70
2023/07/01 02:29:20;;;;;;;3.13;1.70;;;20.30;87.10;;;;;;2074238;28;20022;-70
2023/07/01 02:30:20;;;;;;;3.78;1.75;;;20.30;87.10;;;;;;2074576;28;20026;-70
2023/07/01 02:31:21;;;;;;;3.55;2.25;;;20.20;86.90;;;;;;2075292;28;20025;-70
2023/07/01 02:32:21;;;;;;;2.95;1.60;;;20.30;87.00;;;;;;2075284;28;20033;-70
2023/07/01 02:33:22;;;;;;;3.22;1.95;;;20.20;86.90;;;;;;2073858;28;20521;-70
2023/07/01 02:34:31;;;;;;;3.53;1.90;;;20.30;87.20;;;;;;2075903;28;20453;-70
2023/07/01 02:35:31;;;;;;;3.50;1.58;;;20.30;86.90;;;;;;2074990;28;20025;-70
2023/07/01 02:36:32;;;;;;;2.35;2.00;;;20.20;86.80;;;;;;2073787;28;20022;-70
2023/07/01 02:37:32;;;;;;;2.67;1.80;;;20.30;87.10;;;;;;2073892;28;20059;-70
2023/07/01 02:38:33;;;;;;;5.45;2.22;;;20.30;87.40;;;;;;2077210;28;20025;-70
2023/07/01 02:39:33;;;;;;;3.88;1.77;;;20.30;87.50;;;;;;2075127;28;20017;-70
2023/07/01 02:40:34;;;;;;;3.75;2.00;;;20.30;87.60;;;;;;2074521;28;20049;-70
2023/07/01 02:41:34;;;;;;;2.28;1.98;;;20.30;87.40;;;;;;2075417;28;20069;-70
2023/07/01 02:42:35;;;;;;;2.97;1.90;;;20.20;87.40;;;;;;2074260;28;20405;-70
2023/07/01 02:43:35;;;;;;;3.10;1.88;;;20.30;87.40;;;;;;2074808;28;20452;-70
2023/07/01 02:44:36;;;;;;;3.55;2.10;;;20.30;87.60;;;;;;2073058;28;20024;-70
2023/07/01 02:45:36;;;;;;;4.35;1.70;;;20.30;87.70;;;;;;2075296;28;20026;-70
2023/07/01 02:46:37;;;;;;;4.18;2.40;;;20.20;87.90;;;;;;2074064;28;20213;-70
2023/07/01 02:47:38;;;;;;;4.00;1.88;;;20.20;87.80;;;;;;2074174;28;20481;-70
2023/07/01 02:48:38;;;;;;;3.13;2.15;;;20.20;87.80;;;;;;2075501;28;20414;-70
2023/07/01 02:49:40;;;;;;;2.75;1.80;;;20.30;87.60;;;;;;2074005;28;20032;-70
2023/07/01 02:50:40;;;;;;;5.07;2.05;;;20.20;87.50;;;;;;2074484;28;20547;-70
2023/07/01 02:51:41;;;;;;;4.57;1.83;;;20.30;87.80;;;;;;2074184;28;20052;-70
2023/07/01 02:52:41;;;;;;;2.47;1.80;;;20.30;87.90;;;;;;2075901;28;20113;-70
2023/07/01 02:53:42;;;;;;;3.97;1.70;;;20.30;87.60;;;;;;2077150;28;20037;-70
2023/07/01 02:54:43;;;;;;;2.20;2.00;;;20.30;87.40;;;;;;2076160;28;20033;-70
2023/07/01 02:55:44;;;;;;;1.85;1.50;;;20.30;87.40;;;;;;2074566;28;20041;-70
2023/07/01 02:56:44;;;;;;;3.42;1.60;;;20.30;87.00;;;;;;2074941;28;20064;-70
2023/07/01 02:57:45;;;;;;;2.10;1.88;;;20.30;86.90;;;;;;2074291;28;20027;-70
2023/07/01 02:58:45;;;;;;;3.67;1.80;;;20.30;87.00;;;;;;2074999;28;20034;-70
2023/07/01 02:59:46;;;;;;;4.10;2.20;;;20.30;87.30;;;;;;2077772;28;20045;-70
2023/07/01 03:00:47;;;;;;;3.13;2.05;;;20.30;87.40;;;;;;2076612;28;20029;-70
2023/07/01 03:01:48;;;;;;;3.83;2.00;;;20.30;87.10;;;;;;2076601;28;20033;-70
2023/07/01 03:02:48;;;;;;;2.78;1.88;;;20.30;86.80;;;;;;2076912;28;20057;-70
2023/07/01 03:03:49;;;;;;;3.78;1.90;;;20.20;86.90;;;;;;2076251;28;20032;-70
2023/07/01 03:04:50;;;;;;;3.28;1.98;;;20.30;86.90;;;;;;2076032;28;20490;-70
2023/07/01 03:05:50;;;;;;;2.80;1.83;;;20.30;87.30;;;;;;2074728;28;20490;-70
2023/07/01 03:06:51;;;;;;;4.07;1.92;;;20.30;87.50;;;;;;2074988;28;20014;-70
2023/07/01 03:07:52;;;;;;;4.53;1.80;;;20.30;87.20;;;;;;2075206;28;20022;-70
2023/07/01 03:08:52;;;;;;;2.50;1.70;;;20.30;87.00;;;;;;2073798;28;20026;-70
2023/07/01 03:09:53;;;;;;;3.85;1.70;;;20.30;87.00;;;;;;2075770;28;20113;-70
2023/07/01 03:10:53;;;;;;;4.25;2.30;;;20.30;86.80;;;;;;2076488;28;20025;-70
2023/07/01 03:11:54;;;;;;;4.05;2.05;;;20.30;86.40;;;;;;2075049;28;20498;-70
2023/07/01 03:12:55;;;;;;;3.50;1.80;;;20.20;86.20;;;;;;2074824;28;20032;-70
2023/07/01 03:13:55;;;;;;;2.50;2.03;;;20.30;85.90;;;;;;2075600;28;20030;-70
2023/07/01 03:14:56;;;;;;;3.20;2.05;;;20.30;85.90;;;;;;2075769;28;20061;-70
2023/07/01 03:15:56;;;;;;;3.03;2.00;;;20.30;85.70;;;;;;2075742;28;20037;-70
2023/07/01 03:16:57;;;;;;;2.20;1.70;;;20.30;85.80;;;;;;2075117;28;20520;-70
2023/07/01 03:17:58;;;;;;;2.97;1.77;;;20.30;85.80;;;;;;2073158;28;20025;-70
2023/07/01 03:18:58;;;;;;;2.33;1.25;;;20.20;85.60;;;;;;2074338;28;20029;-70
2023/07/01 03:19:59;;;;;;;2.30;1.52;;;20.30;85.80;;;;;;2073223;28;20536;-70
2023/07/01 03:21:00;;;;;;;3.95;1.77;;;20.20;85.30;;;;;;2074212;28;20022;-70
2023/07/01 03:22:01;;;;;;;4.60;2.00;;;20.20;85.10;;;;;;2072970;28;20038;-70
2023/07/01 03:23:01;;;;;;;3.65;1.90;;;20.20;84.90;;;;;;2074785;28;20089;-70
2023/07/01 03:24:02;;;;;;;2.85;1.80;;;20.20;85.20;;;;;;2073968;28;20036;-70
2023/07/01 03:25:04;;;;;;;4.05;2.03;;;20.30;85.00;;;;;;2078402;28;20082;-70
2023/07/01 03:26:04;;;;;;;2.08;1.45;;;20.20;84.90;;;;;;2077956;28;20633;-70
2023/07/01 03:27:06;;;;;;;2.85;1.80;;;20.20;85.30;;;;;;2074118;28;20393;-70
2023/07/01 03:28:08;;;;;;;4.03;1.67;;;20.30;85.30;;;;;;2075038;28;20026;-70
2023/07/01 03:29:09;;;;;;;3.45;1.80;;;20.30;85.20;;;;;;2073380;28;20021;-70
2023/07/01 03:30:13;;;;;;;2.30;1.80;;;20.20;85.30;;;;;;2074287;28;20037;-70
2023/07/01 03:31:14;;;;;;;4.70;1.60;;;20.30;85.10;;;;;;2074340;28;20036;-70
2023/07/01 03:32:14;;;;;;;3.17;1.70;;;20.20;84.80;;;;;;2073551;28;20034;-70
2023/07/01 03:33:17;;;;;;;3.92;2.00;;;20.30;84.70;;;;;;2074412;28;20777;-70
2023/07/01 03:34:17;;;;;;;2.72;1.77;;;20.30;84.40;;;;;;2073231;28;20268;-70
2023/07/01 03:35:18;;;;;;;3.72;1.67;;;20.20;84.20;;;;;;2074343;28;20025;-70
2023/07/01 03:36:19;;;;;;;2.95;1.60;;;20.20;84.10;;;;;;2075877;28;20026;-70
2023/07/01 03:37:19;;;;;;;4.85;1.80;;;20.20;84.20;;;;;;2075760;28;20059;-70
2023/07/01 03:38:20;;;;;;;4.80;1.65;;;20.30;84.30;;;;;;2075986;28;20056;-70
2023/07/01 03:39:20;;;;;;;4.20;1.55;;;20.30;84.10;;;;;;2072801;28;20022;-70
2023/07/01 03:40:21;;;;;;;2.75;1.85;;;20.30;84.20;;;;;;2073207;28;20099;-70
2023/07/01 03:41:21;;;;;;;4.28;1.73;;;20.30;84.20;;;;;;2075209;28;20026;-70
2023/07/01 03:42:22;;;;;;;3.50;1.60;;;20.30;83.90;;;;;;2073512;28;20644;-70
2023/07/01 03:43:22;;;;;;;3.15;1.83;;;20.30;83.50;;;;;;2074244;28;20497;-70
2023/07/01 03:44:23;;;;;;;3.22;1.60;;;20.30;83.60;;;;;;2074660;28;20741;-70
2023/07/01 03:45:23;;;;;;;3.33;1.85;;;20.30;83.60;;;;;;2077545;28;20028;-70
2023/07/01 03:46:24;;;;;;;3.33;2.05;;;20.30;83.60;;;;;;2076846;28;20054;-70
2023/07/01 03:47:25;;;;;;;3.55;1.60;;;20.30;83.60;;;;;;2077859;28;20034;-70
2023/07/01 03:48:25;;;;;;;2.53;1.90;;;20.20;83.50;;;;;;2076091;28;20025;-70
2023/07/01 03:49:26;;;;;;;4.28;1.90;;;20.30;83.50;;;;;;2078200;28;20026;-70
2023/07/01 03:50:27;;;;;;;4.22;1.80;;;20.30;83.40;;;;;;2077060;28;20021;-70
2023/07/01 03:51:29;;;;;;;3.72;1.80;;;20.30;83.70;;;;;;2076651;28;20112;-70
2023/07/01 03:52:30;;;;;;;5.35;2.40;;;20.30;83.60;;;;;;2076867;28;20099;-70
2023/07/01 03:53:30;;;;;;;1.70;1.60;;;20.30;83.50;;;;;;2077107;28;20056;-70
2023/07/01 03:54:31;;;;;;;3.38;1.58;;;20.30;83.50;;;;;;2077045;28;20026;-70
2023/07/01 03:55:31;;;;;;;2.30;1.67;;;20.30;83.50;;;;;;2078816;28;20061;-70
2023/07/01 03:56:32;;;;;;;4.45;2.15;;;20.30;83.70;;;;;;2078025;28;20033;-70
2023/07/01 03:57:33;;;;;;;5.38;2.05;;;20.20;83.60;;;;;;2076895;28;20049;-70
2023/07/01 03:58:34;;;;;;;2.90;1.75;;;20.30;83.80;;;;;;2078324;28;20029;-70
2023/07/01 03:59:34;;;;;;;3.88;1.83;;;20.30;83.70;;;;;;2080818;28;20032;-70
2023/07/01 04:00:35;;;;;;;3.15;1.38;;;20.30;83.60;;;;;;2081022;28;20683;-70
2023/07/01 04:01:39;;;;;;;3.65;2.00;;;20.30;83.60;;;;;;2078309;28;20755;-70
2023/07/01 04:02:42;;;;;;;4.53;1.90;;;20.30;83.60;;;;;;2075269;28;20028;-70
2023/07/01 04:03:42;;;;;;;2.35;1.38;;;20.30;84.00;;;;;;2075247;28;20021;-70
2023/07/01 04:04:43;;;;;;;4.18;2.00;;;20.30;84.00;;;;;;2077165;28;20160;-70
2023/07/01 04:05:43;;;;;;;4.13;1.77;;;20.30;84.10;;;;;;2075888;28;20033;-70
2023/07/01 04:06:44;;;;;;;1.98;1.58;;;20.30;84.20;;;;;;2077350;28;20029;-70
2023/07/01 04:07:47;;;;;;;2.97;2.03;;;20.30;84.30;;;;;;2078569;28;20021;-70
2023/07/01 04:08:54;;;;;;;4.90;2.03;;;20.30;84.20;;;;;;2076367;28;20092;-70
2023/07/01 04:09:55;;;;;;;2.80;1.88;;;20.30;84.10;;;;;;2076872;28;20490;-70
2023/07/01 04:10:56;;;;;;;3.90;1.95;;;20.30;84.20;;;;;;2077658;28;20029;-70
2023/07/01 04:11:56;;;;;;;5.38;2.30;;;20.30;84.30;;;;;;2077520;28;20041;-70
2023/07/01 04:13:00;;;;;;;5.43;2.50;;;20.40;84.10;;;;;;2077789;28;20029;-70
2023/07/01 04:14:00;;;;;;;6.88;2.17;;;20.30;83.70;;;;;;2077530;28;20032;-70
2023/07/01 04:15:02;;;;;;;3.08;2.10;;;20.40;83.70;;;;;;2075957;28;20022;-70
2023/07/01 04:16:03;;;;;;;3.53;1.80;;;20.30;83.60;;;;;;2077753;28;20029;-70
2023/07/01 04:17:04;;;;;;;3.95;1.90;;;20.30;83.80;;;;;;2077273;28;20030;-70
2023/07/01 04:18:05;;;;;;;2.60;1.98;;;20.30;84.60;;;;;;2076541;28;20559;-70
2023/07/01 04:19:08;;;;;;;2.65;1.85;;;20.30;83.50;;;;;;2076427;28;20440;-70
2023/07/01 04:20:09;;;;;;;4.70;1.85;;;20.30;84.00;;;;;;2076107;28;20024;-70
2023/07/01 04:21:10;;;;;;;8.65;2.20;;;20.40;84.30;;;;;;2077871;28;20018;-70
2023/07/01 04:22:10;;;;;;;3.97;1.80;;;20.40;84.20;;;;;;2077713;28;20030;-70
2023/07/01 04:23:11;;;;;;;2.85;1.92;;;20.40;84.30;;;;;;2077906;28;20497;-70
2023/07/01 04:24:11;;;;;;;3.05;1.80;;;20.40;84.70;;;;;;2076805;28;20402;-70
2023/07/01 04:25:13;;;;;;;2.72;1.70;;;20.40;84.30;;;;;;2076767;28;20057;-70
2023/07/01 04:26:13;;;;;;;2.47;1.90;;;20.40;84.80;;;;;;2076188;28;20084;-70
2023/07/01 04:27:14;;;;;;;2.47;1.73;;;20.40;85.00;;;;;;2077382;28;20053;-70
2023/07/01 04:28:14;;;;;;;3.80;1.63;;;20.40;84.70;;;;;;2078039;28;20507;-70
2023/07/01 04:29:15;;;;;;;2.72;1.55;;;20.40;84.50;;;;;;2077550;28;20516;-70
2023/07/01 04:30:16;;;;;;;5.85;1.95;;;20.40;84.70;;;;;;2076027;28;20436;-70
2023/07/01 04:31:17;;;;;;;3.55;1.67;;;20.40;84.80;;;;;;2078083;28;20026;-70
2023/07/01 04:32:17;;;;;;;2.60;1.90;;;20.40;84.90;;;;;;2076804;28;20022;-70
2023/07/01 04:33:18;;;;;;;3.45;1.88;;;20.40;85.20;;;;;;2076003;28;20076;-70
2023/07/01 04:34:18;;;;;;;2.95;1.63;;;20.40;85.10;;;;;;2077679;28;20030;-70
2023/07/01 04:35:19;;;;;;;2.28;2.08;;;20.40;85.20;;;;;;2077036;28;20018;-70
2023/07/01 04:36:19;;;;;;;3.85;1.75;;;20.40;85.20;;;;;;2075733;28;20504;-70
2023/07/01 04:37:20;;;;;;;5.13;2.10;;;20.40;85.30;;;;;;2076191;28;20743;-70
2023/07/01 04:38:20;;;;;;;5.80;2.20;;;20.40;85.30;;;;;;2078049;28;20386;-70
2023/07/01 04:39:23;;;;;;;2.83;1.90;;;20.30;85.50;;;;;;2076540;28;20022;-70
2023/07/01 04:40:23;;;;;;;3.70;2.15;;;20.30;85.70;;;;;;2076838;28;20076;-70
2023/07/01 04:41:24;;;;;;;4.53;2.08;;;20.40;86.10;;;;;;2076419;28;20029;-70
2023/07/01 04:42:25;;;;;;;2.38;1.90;;;20.30;86.40;;;;;;2074820;28;20030;-70
2023/07/01 04:43:25;;;;;;;5.07;2.00;;;20.40;86.40;;;;;;2076548;28;20032;-70
2023/07/01 04:44:26;;;;;;;2.17;1.80;;;20.40;86.60;;;;;;2077548;28;20029;-70
2023/07/01 04:45:29;;;;;;;3.85;2.13;;;20.40;86.40;;;;;;2075095;28;20030;-70
2023/07/01 04:46:31;;;;;;;2.70;1.63;;;20.40;86.30;;;;;;2076569;28;20382;-70
2023/07/01 04:47:32;;;;;;;3.45;2.00;;;20.40;86.20;;;;;;2077949;28;20018;-70
2023/07/01 04:48:32;;;;;;;3.35;1.98;;;20.40;86.40;;;;;;2078057;28;20056;-70
2023/07/01 04:49:33;;;;;;;4.57;2.13;;;20.40;86.60;;;;;;2075551;28;20104;-70
2023/07/01 04:50:33;;;;;;;5.07;1.90;;;20.40;86.90;;;;;;2080318;28;20466;-70
2023/07/01 04:51:34;;;;;;;8.15;2.10;;;20.40;87.00;;;;;;2079337;28;20033;-70
2023/07/01 04:52:35;;;;;;;3.05;1.73;;;20.40;86.80;;;;;;2077440;28;20032;-70
2023/07/01 04:53:38;;;;;;;5.93;2.10;;;20.40;87.00;;;;;;2077018;28;20054;-70
2023/07/01 04:54:39;;;;;;;2.60;2.30;;;20.40;87.00;;;;;;2076548;28;20389;-70
2023/07/01 04:55:39;;;;;;;6.30;2.20;;;20.40;86.80;;;;;;2075980;28;20052;-70
2023/07/01 04:56:40;;;;;;;6.82;1.88;;;20.50;86.80;;;;;;2074022;28;20014;-70
2023/07/01 04:57:41;;;;;;;4.18;2.05;;;20.50;86.90;;;;;;2076170;28;20033;-70
2023/07/01 04:58:41;;;;;;;3.33;2.03;;;20.50;86.80;;;;;;2075342;28;20098;-70
2023/07/01 04:59:43;;;;;;;3.05;1.80;;;20.50;86.80;;;;;;2074154;28;20025;-70
2023/07/01 05:00:44;;;;;;;3.55;2.03;;;20.50;87.20;;;;;;2077041;28;20034;-70
2023/07/01 05:01:45;;;;;;;3.22;2.20;;;20.50;87.60;;;;;;2074139;28;20030;-70
2023/07/01 05:02:45;;;;;;;2.80;2.05;;;20.50;87.50;;;;;;2073650;28;20040;-70
2023/07/01 05:03:46;;;;;;;3.63;1.83;;;20.50;87.30;;;;;;2075740;28;20100;-70
2023/07/01 05:04:46;;;;;;;3.65;1.92;;;20.60;86.80;;;;;;2075003;28;20025;-70
2023/07/01 05:05:47;;;;;;;2.45;1.92;;;20.60;86.30;;;;;;2074409;28;20022;-70
2023/07/01 05:06:47;;;;;;;4.60;2.03;;;20.60;86.50;;;;;;2076201;28;20014;-70
2023/07/01 05:07:48;;;;;;;4.18;2.22;;;20.60;86.80;;;;;;2075372;28;20026;-70
2023/07/01 05:08:48;;;;;;;3.53;2.05;;;20.60;86.70;;;;;;2074934;28;20422;-70
2023/07/01 05:09:49;;;;;;;3.58;2.30;;;20.60;86.70;;;;;;2074705;28;20554;-70
2023/07/01 05:10:49;;;;;;;4.47;2.10;;;20.60;87.00;;;;;;2075632;28;20026;-70
2023/07/01 05:11:50;;;;;;;4.30;2.20;;;20.60;86.90;;;;;;2075230;28;20084;-70
2023/07/01 05:12:51;;;;;;;5.75;2.38;;;20.60;86.70;;;;;;2075135;28;20025;-70
2023/07/01 05:13:51;;;;;;;4.90;2.25;;;20.60;87.00;;;;;;2075126;28;20028;-70
2023/07/01 05:14:53;;;;;;;3.20;2.08;;;20.60;86.50;;;;;;2076599;28;20026;-70
2023/07/01 05:15:54;;;;;;;2.72;1.85;;;20.70;86.20;;;;;;2075443;28;20032;-70
2023/07/01 05:16:54;;;;;;;3.08;1.90;;;20.70;86.50;;;;;;2074932;28;20045;-70
2023/07/01 05:17:55;;;;;;;4.03;2.00;;;20.70;86.20;;;;;;2075126;28;20112;-70
2023/07/01 05:18:56;;;;;;;6.75;1.88;;;20.70;86.30;;;;;;2075272;28;20045;-70
2023/07/01 05:19:57;;;;;;;4.88;2.13;;;20.70;86.00;;;;;;2075695;28;20021;-70
2023/07/01 05:20:57;;;;;;;3.28;1.90;;;20.70;86.30;;;;;;2075957;28;20486;-70
2023/07/01 05:21:58;;;;;;;3.00;2.25;;;20.80;86.90;;;;;;2073449;28;20105;-70